Private Wetterstation Wechselburg
Wetterdaten: Montag, 29.10.2012
Datum Zeit Temp. +2m Bodentemp. Temp.+5cm Temp. Wind Windchill X Diff Temp. Feuchte +2m Feuchte +5cm Sonnenschein Luftdruck Regen Wind Richtung Richtung Sonnenschein UV Taupunkt Windchill Windben
29.10.2012 00:00 -4,3 C 11,1 C -2,7 C -4,3 C -4,4 C 0,0 C 90 % 95 % 0 % 1019,6 hPa 0,0 l/m 0,0 km/h (0 Bft) O-NO 67 0 min 0,0 UV-I -5,7 C -4,4 C 0,0 km/h (0 Bft)
29.10.2012 00:05 -4,3 C 11,1 C -2,9 C -4,4 C -4,5 C 0,0 C 90 % 95 % 0 % 1019,6 hPa 0,0 l/m 0,0 km/h (0 Bft) O-NO 67 0 min 0,0 UV-I -5,7 C -4,5 C 0,0 km/h (0 Bft)
29.10.2012 00:10 -4,3 C 11,1 C -2,9 C -4,4 C -4,6 C 0,0 C 90 % 95 % 0 % 1019,6 hPa 0,0 l/m 0,0 km/h (0 Bft) O-NO 67 0 min 0,0 UV-I -5,7 C -4,6 C 0,0 km/h (0 Bft)
29.10.2012 00:15 -4,3 C 11,1 C -2,9 C -4,5 C -4,9 C 0,0 C 90 % 95 % 0 % 1019,4 hPa 0,0 l/m 0,0 km/h (0 Bft) O-NO 67 0 min 0,0 UV-I -5,7 C -4,9 C 0,0 km/h (0 Bft)
29.10.2012 00:20 -4,4 C 11,1 C -3,0 C -4,6 C -4,9 C 0,0 C 90 % 95 % 0 % 1019,4 hPa 0,0 l/m 0,0 km/h (0 Bft) O-NO 67 0 min 0,0 UV-I -5,8 C -4,9 C 0,0 km/h (0 Bft)
29.10.2012 00:25 -4,3 C 11,1 C -2,9 C -4,5 C -4,8 C 0,0 C 90 % 95 % 0 % 1019,4 hPa 0,0 l/m 0,2 km/h (0 Bft) O-NO 67 0 min 0,0 UV-I -5,7 C -4,8 C 0,0 km/h (0 Bft)
29.10.2012 00:30 -4,4 C 11,1 C -3,1 C -4,5 C -4,7 C 0,0 C 90 % 95 % 0 % 1019,4 hPa 0,0 l/m 0,2 km/h (0 Bft) O-NO 67 0 min 0,0 UV-I -5,8 C -4,7 C 0,0 km/h (0 Bft)
29.10.2012 00:35 -4,4 C 11,1 C -3,3 C -4,5 C -4,8 C 0,0 C 90 % 95 % 0 % 1019,8 hPa 0,0 l/m 0,0 km/h (0 Bft) O-NO 67 0 min 0,0 UV-I -5,8 C -4,8 C 0,0 km/h (0 Bft)
29.10.2012 00:40 -4,5 C 11,0 C -2,5 C -4,4 C -4,4 C 0,1 C 90 % 95 % 0 % 1019,6 hPa 0,0 l/m 0,0 km/h (0 Bft) O-NO 67 0 min 0,0 UV-I -5,9 C -4,4 C 0,0 km/h (0 Bft)
29.10.2012 00:45 -4,4 C 11,0 C -2,5 C -4,3 C -4,3 C 0,1 C 90 % 95 % 0 % 1019,6 hPa 0,0 l/m 0,0 km/h (0 Bft) O-NO 67 0 min 0,0 UV-I -5,8 C -4,3 C 0,0 km/h (0 Bft)
29.10.2012 00:50 -4,4 C 11,0 C -2,5 C -4,3 C -4,3 C 0,1 C 90 % 95 % 0 % 1019,6 hPa 0,0 l/m 0,0 km/h (0 Bft) O-NO 67 0 min 0,0 UV-I -5,8 C -4,3 C 0,0 km/h (0 Bft)
29.10.2012 00:55 -4,3 C 11,0 C -2,6 C -4,3 C -4,4 C 0,0 C 90 % 95 % 0 % 1019,6 hPa 0,0 l/m 0,0 km/h (0 Bft) O-NO 67 0 min 0,0 UV-I -5,7 C -4,4 C 0,0 km/h (0 Bft)
29.10.2012 01:00 -4,3 C 10,9 C -2,7 C -4,3 C -4,4 C 0,0 C 90 % 95 % 0 % 1019,6 hPa 0,0 l/m 0,0 km/h (0 Bft) O-NO 67 0 min 0,0 UV-I -5,7 C -4,4 C 0,0 km/h (0 Bft)
29.10.2012 01:05 -4,3 C 11,0 C -2,9 C -4,4 C -4,5 C 0,0 C 90 % 95 % 0 % 1019,6 hPa 0,0 l/m 0,0 km/h (0 Bft) O-NO 67 0 min 0,0 UV-I -5,7 C -4,5 C 0,0 km/h (0 Bft)
29.10.2012 01:10 -4,3 C 11,0 C -2,9 C -4,4 C -4,6 C 0,0 C 90 % 95 % 0 % 1019,6 hPa 0,0 l/m 0,0 km/h (0 Bft) O-NO 67 0 min 0,0 UV-I -5,7 C -4,6 C 0,0 km/h (0 Bft)
29.10.2012 01:15 -4,3 C 11,0 C -2,9 C -4,5 C -4,9 C 0,0 C 90 % 95 % 0 % 1019,4 hPa 0,0 l/m 0,0 km/h (0 Bft) O-NO 67 0 min 0,0 UV-I -5,7 C -4,9 C 0,0 km/h (0 Bft)
29.10.2012 01:20 -4,4 C 11,0 C -3,0 C -4,6 C -4,9 C 0,0 C 90 % 95 % 0 % 1019,4 hPa 0,0 l/m 0,0 km/h (0 Bft) O-NO 67 0 min 0,0 UV-I -5,8 C -4,9 C 0,0 km/h (0 Bft)
29.10.2012 01:25 -4,3 C 11,0 C -2,9 C -4,5 C -4,8 C 0,0 C 90 % 95 % 0 % 1019,4 hPa 0,0 l/m 0,2 km/h (0 Bft) O-NO 67 0 min 0,0 UV-I -5,7 C -4,8 C 0,0 km/h (0 Bft)
29.10.2012 01:30 -4,4 C 11,0 C -3,1 C -4,5 C -4,7 C 0,0 C 90 % 95 % 0 % 1019,4 hPa 0,0 l/m 0,2 km/h (0 Bft) O-NO 67 0 min 0,0 UV-I -5,8 C -4,7 C 0,0 km/h (0 Bft)
29.10.2012 00:58 -4,5 C 0,0 C -2,9 C -4,6 C -4,8 C 0,0 C 90 % 95 % 0 % 1019,8 hPa 0,0 l/m 0,0 km/h (0 Bft) O-NO 67 0 min 0,0 UV-I -5,9 C -4,8 C 0,0 km/h (0 Bft)
29.10.2012 01:00 -4,5 C 11,0 C -2,9 C -4,6 C -4,7 C 0,0 C 90 % 95 % 0 % 1019,8 hPa 0,0 l/m 0,0 km/h (0 Bft) O-NO 67 0 min 0,0 UV-I -5,9 C -4,7 C 0,0 km/h (0 Bft)
29.10.2012 01:05 -4,6 C 11,0 C -2,8 C -4,5 C -4,5 C 0,1 C 90 % 95 % 0 % 1019,8 hPa 0,0 l/m 0,0 km/h (0 Bft) O-NO 67 0 min 0,0 UV-I -6,0 C -4,5 C 0,0 km/h (0 Bft)
29.10.2012 01:10 -4,5 C 11,0 C -2,7 C -4,3 C -4,3 C 0,2 C 90 % 95 % 0 % 1019,8 hPa 0,0 l/m 0,0 km/h (0 Bft) O-NO 67 0 min 0,0 UV-I -5,9 C -4,3 C 0,0 km/h (0 Bft)
29.10.2012 01:15 -4,5 C 11,0 C -2,5 C -4,0 C -4,0 C 0,5 C 90 % 95 % 0 % 1019,8 hPa 0,0 l/m 0,2 km/h (0 Bft) O-NO 67 0 min 0,0 UV-I -5,9 C -4,0 C 2,6 km/h (1 Bft)
29.10.2012 01:20 -4,4 C 11,0 C -2,5 C -3,9 C -3,9 C 0,5 C 91 % 95 % 0 % 1019,8 hPa 0,0 l/m 0,2 km/h (0 Bft) O-NO 67 0 min 0,0 UV-I -5,6 C -3,9 C 0,0 km/h (0 Bft)
29.10.2012 01:25 -4,3 C 11,0 C -2,5 C -3,7 C -3,7 C 0,6 C 91 % 95 % 0 % 1019,8 hPa 0,0 l/m 0,2 km/h (0 Bft) O-NO 67 0 min 0,0 UV-I -5,5 C -3,7 C 0,0 km/h (0 Bft)
29.10.2012 01:30 -4,2 C 11,0 C -2,5 C -3,6 C -3,6 C 0,6 C 91 % 95 % 0 % 1019,8 hPa 0,0 l/m 0,0 km/h (0 Bft) O-NO 67 0 min 0,0 UV-I -5,4 C -3,6 C 0,0 km/h (0 Bft)
29.10.2012 01:35 -4,1 C 11,0 C -2,3 C -3,4 C -3,4 C 0,7 C 91 % 95 % 0 % 1020,0 hPa 0,0 l/m 0,0 km/h (0 Bft) O-NO 67 0 min 0,0 UV-I -5,3 C -3,4 C 0,0 km/h (0 Bft)
29.10.2012 01:40 -4,1 C 11,0 C -2,3 C -3,3 C -3,3 C 0,8 C 91 % 95 % 0 % 1020,0 hPa 0,0 l/m 0,0 km/h (0 Bft) O-NO 67 0 min 0,0 UV-I -5,3 C -3,3 C 0,0 km/h (0 Bft)
29.10.2012 01:45 -3,9 C 11,0 C -2,1 C -3,3 C -3,3 C 0,6 C 91 % 95 % 0 % 1020,0 hPa 0,0 l/m 0,0 km/h (0 Bft) O-NO 67 0 min 0,0 UV-I -5,1 C -3,3 C 0,0 km/h (0 Bft)
29.10.2012 01:50 -4,0 C 11,0 C -2,1 C -3,3 C -3,3 C 0,7 C 91 % 95 % 0 % 1020,0 hPa 0,0 l/m 0,0 km/h (0 Bft) O-NO 67 0 min 0,0 UV-I -5,2 C -3,3 C 0,0 km/h (0 Bft)
29.10.2012 01:55 -3,9 C 11,0 C -2,1 C -3,2 C -3,2 C 0,7 C 91 % 95 % 0 % 1019,6 hPa 0,0 l/m 0,0 km/h (0 Bft) O-NO 67 0 min 0,0 UV-I -5,1 C -3,2 C 0,0 km/h (0 Bft)
29.10.2012 02:00 -3,8 C 11,0 C -2,1 C -3,2 C -3,2 C 0,6 C 91 % 95 % 0 % 1019,6 hPa 0,0 l/m 0,2 km/h (0 Bft) O-NO 67 0 min 0,0 UV-I -5,0 C -3,2 C 0,0 km/h (0 Bft)
29.10.2012 02:05 -3,7 C 11,0 C -2,1 C -3,2 C -3,2 C 0,5 C 91 % 95 % 0 % 1019,6 hPa 0,0 l/m 0,2 km/h (0 Bft) O-NO 67 0 min 0,0 UV-I -4,9 C -3,2 C 0,0 km/h (0 Bft)
29.10.2012 02:10 -3,7 C 11,0 C -2,1 C -3,2 C -3,2 C 0,5 C 91 % 95 % 0 % 1019,6 hPa 0,0 l/m 0,0 km/h (0 Bft) O-NO 67 0 min 0,0 UV-I -4,9 C -3,2 C 0,0 km/h (0 Bft)
29.10.2012 02:15 -3,5 C 11,0 C -2,1 C -3,2 C -3,2 C 0,3 C 91 % 95 % 0 % 1019,3 hPa 0,0 l/m 0,0 km/h (0 Bft) O-NO 67 0 min 0,0 UV-I -4,8 C -3,2 C 0,0 km/h (0 Bft)
29.10.2012 02:20 -3,5 C 10,7 C -2,1 C -3,3 C -3,3 C 0,2 C 91 % 95 % 0 % 1019,3 hPa 0,0 l/m 0,0 km/h (0 Bft) O-NO 67 0 min 0,0 UV-I -4,8 C -3,3 C 0,0 km/h (0 Bft)
29.10.2012 02:25 -3,7 C 10,7 C -2,1 C -3,4 C -3,4 C 0,3 C 91 % 95 % 0 % 1019,3 hPa 0,0 l/m 0,0 km/h (0 Bft) O-NO 67 0 min 0,0 UV-I -4,9 C -3,4 C 0,0 km/h (0 Bft)
29.10.2012 02:30 -3,7 C 10,7 C -2,1 C -3,4 C -3,4 C 0,3 C 91 % 95 % 0 % 1019,3 hPa 0,0 l/m 0,0 km/h (0 Bft) O-NO 67 0 min 0,0 UV-I -4,9 C -3,4 C 0,0 km/h (0 Bft)
29.10.2012 02:35 -3,7 C 10,7 C -2,1 C -3,4 C -3,4 C 0,3 C 91 % 95 % 0 % 1019,5 hPa 0,0 l/m 0,0 km/h (0 Bft) O-NO 67 0 min 0,0 UV-I -4,9 C -3,4 C 0,0 km/h (0 Bft)
29.10.2012 02:40 -3,5 C 10,7 C -2,1 C -3,4 C -3,4 C 0,1 C 91 % 95 % 0 % 1019,5 hPa 0,0 l/m 0,0 km/h (0 Bft) O-NO 67 0 min 0,0 UV-I -4,8 C -3,4 C 0,0 km/h (0 Bft)
29.10.2012 02:45 -3,5 C 10,7 C -2,1 C -3,5 C -3,5 C 0,0 C 91 % 95 % 0 % 1019,5 hPa 0,0 l/m 0,0 km/h (0 Bft) O-NO 67 0 min 0,0 UV-I -4,8 C -3,5 C 0,0 km/h (0 Bft)
29.10.2012 02:50 -3,7 C 10,7 C -2,1 C -3,5 C -3,5 C 0,2 C 91 % 95 % 0 % 1019,5 hPa 0,0 l/m 0,0 km/h (0 Bft) O-NO 67 0 min 0,0 UV-I -4,9 C -3,5 C 0,0 km/h (0 Bft)
29.10.2012 02:55 -3,7 C 10,7 C -2,1 C -3,7 C -3,8 C 0,0 C 91 % 95 % 0 % 1019,3 hPa 0,0 l/m 0,0 km/h (0 Bft) O-NO 67 0 min 0,0 UV-I -4,9 C -3,8 C 0,0 km/h (0 Bft)
29.10.2012 03:00 -3,7 C 10,7 C -2,1 C -3,8 C -3,9 C 0,0 C 91 % 95 % 0 % 1019,3 hPa 0,0 l/m 0,0 km/h (0 Bft) O-NO 67 0 min 0,0 UV-I -4,9 C -3,9 C 0,0 km/h (0 Bft)
29.10.2012 03:05 -3,7 C 10,7 C -2,3 C -3,8 C -4,1 C 0,0 C 91 % 95 % 0 % 1019,3 hPa 0,0 l/m 0,0 km/h (0 Bft) O-NO 67 0 min 0,0 UV-I -4,9 C -4,1 C 0,0 km/h (0 Bft)
29.10.2012 03:10 -3,9 C 10,7 C -2,5 C -4,0 C -4,2 C 0,0 C 91 % 95 % 0 % 1019,3 hPa 0,0 l/m 0,0 km/h (0 Bft) O-NO 67 0 min 0,0 UV-I -5,1 C -4,2 C 0,0 km/h (0 Bft)
29.10.2012 03:15 -3,9 C 10,7 C -2,5 C -4,1 C -4,4 C 0,0 C 91 % 95 % 0 % 1019,7 hPa 0,0 l/m 0,0 km/h (0 Bft) O-NO 67 0 min 0,0 UV-I -5,1 C -4,4 C 0,0 km/h (0 Bft)
29.10.2012 03:20 -4,0 C 10,7 C -2,7 C -4,2 C -4,6 C 0,0 C 90 % 95 % 0 % 1019,7 hPa 0,0 l/m 0,0 km/h (0 Bft) O-NO 67 0 min 0,0 UV-I -5,4 C -4,6 C 0,0 km/h (0 Bft)
29.10.2012 03:25 -4,1 C 10,7 C -2,8 C -4,3 C -4,6 C 0,0 C 90 % 94 % 0 % 1019,7 hPa 0,0 l/m 0,0 km/h (0 Bft) O-NO 67 0 min 0,0 UV-I -5,5 C -4,6 C 0,0 km/h (0 Bft)
29.10.2012 03:30 -4,1 C 10,7 C -2,7 C -4,2 C -4,5 C 0,0 C 90 % 94 % 0 % 1019,7 hPa 0,0 l/m 0,0 km/h (0 Bft) O-NO 67 0 min 0,0 UV-I -5,5 C -4,5 C 0,0 km/h (0 Bft)
29.10.2012 03:35 -4,1 C 10,7 C -2,7 C -4,2 C -4,3 C 0,0 C 90 % 95 % 0 % 1019,7 hPa 0,0 l/m 0,0 km/h (0 Bft) O-NO 67 0 min 0,0 UV-I -5,5 C -4,3 C 0,0 km/h (0 Bft)
29.10.2012 03:40 -4,1 C 10,7 C -2,7 C -4,1 C -4,2 C 0,0 C 90 % 95 % 0 % 1019,7 hPa 0,0 l/m 0,0 km/h (0 Bft) O-NO 67 0 min 0,0 UV-I -5,5 C -4,2 C 0,0 km/h (0 Bft)
29.10.2012 03:45 -4,1 C 10,7 C -2,7 C -4,2 C -4,3 C 0,0 C 90 % 94 % 0 % 1019,7 hPa 0,0 l/m 0,0 km/h (0 Bft) O-NO 67 0 min 0,0 UV-I -5,5 C -4,3 C 0,0 km/h (0 Bft)
29.10.2012 03:50 -4,1 C 10,7 C -2,7 C -4,2 C -4,5 C 0,0 C 90 % 95 % 0 % 1019,7 hPa 0,0 l/m 0,0 km/h (0 Bft) O-NO 67 0 min 0,0 UV-I -5,5 C -4,5 C 0,0 km/h (0 Bft)
29.10.2012 03:55 -4,1 C 10,7 C -2,7 C -4,2 C -4,5 C 0,0 C 90 % 95 % 0 % 1019,3 hPa 0,0 l/m 0,0 km/h (0 Bft) O-NO 67 0 min 0,0 UV-I -5,5 C -4,5 C 0,0 km/h (0 Bft)
29.10.2012 04:00 -4,1 C 10,5 C -2,9 C -4,2 C -4,5 C 0,0 C 90 % 95 % 0 % 1019,3 hPa 0,0 l/m 0,0 km/h (0 Bft) O-NO 67 0 min 0,0 UV-I -5,5 C -4,5 C 0,0 km/h (0 Bft)
29.10.2012 04:05 -4,3 C 10,5 C -3,0 C -4,4 C -4,7 C 0,0 C 90 % 94 % 0 % 1019,3 hPa 0,0 l/m 0,0 km/h (0 Bft) O-NO 67 0 min 0,0 UV-I -5,7 C -4,7 C 0,0 km/h (0 Bft)
29.10.2012 04:10 -4,3 C 10,5 C -3,1 C -4,5 C -4,8 C 0,0 C 90 % 94 % 0 % 1019,3 hPa 0,0 l/m 0,0 km/h (0 Bft) O-NO 67 0 min 0,0 UV-I -5,7 C -4,8 C 0,0 km/h (0 Bft)
29.10.2012 04:15 -4,4 C 10,5 C -3,2 C -4,5 C -4,8 C 0,0 C 90 % 94 % 0 % 1019,7 hPa 0,0 l/m 0,0 km/h (0 Bft) O-NO 67 0 min 0,0 UV-I -5,8 C -4,8 C 0,0 km/h (0 Bft)
29.10.2012 04:20 -4,3 C 10,5 C -3,3 C -4,5 C -4,9 C 0,0 C 90 % 94 % 0 % 1019,7 hPa 0,0 l/m 0,0 km/h (0 Bft) O-NO 67 0 min 0,0 UV-I -5,7 C -4,9 C 0,0 km/h (0 Bft)
29.10.2012 04:25 -4,5 C 10,5 C -3,3 C -4,7 C -5,1 C 0,0 C 90 % 94 % 0 % 1019,7 hPa 0,0 l/m 0,0 km/h (0 Bft) O-NO 67 0 min 0,0 UV-I -5,9 C -5,1 C 0,0 km/h (0 Bft)
29.10.2012 04:30 -4,5 C 10,5 C -3,3 C -4,7 C -5,1 C 0,0 C 90 % 94 % 0 % 1019,7 hPa 0,0 l/m 0,0 km/h (0 Bft) O-NO 67 0 min 0,0 UV-I -5,9 C -5,1 C 0,0 km/h (0 Bft)
29.10.2012 04:35 -4,5 C 10,5 C -3,3 C -4,7 C -5,0 C 0,0 C 90 % 94 % 0 % 1019,2 hPa 0,0 l/m 0,0 km/h (0 Bft) O-NO 67 0 min 0,0 UV-I -5,9 C -5,0 C 0,0 km/h (0 Bft)
29.10.2012 04:40 -4,5 C 10,5 C -3,3 C -4,6 C -4,9 C 0,0 C 90 % 94 % 0 % 1019,2 hPa 0,0 l/m 0,0 km/h (0 Bft) O-NO 67 0 min 0,0 UV-I -5,9 C -4,9 C 0,0 km/h (0 Bft)
29.10.2012 04:45 -4,5 C 10,5 C -3,3 C -4,6 C -4,7 C 0,0 C 90 % 94 % 0 % 1019,2 hPa 0,0 l/m 0,0 km/h (0 Bft) O-NO 67 0 min 0,0 UV-I -5,9 C -4,7 C 0,0 km/h (0 Bft)
29.10.2012 04:50 -4,6 C 10,5 C -3,2 C -4,6 C -4,6 C 0,0 C 90 % 94 % 0 % 1019,2 hPa 0,0 l/m 0,0 km/h (0 Bft) O-NO 67 0 min 0,0 UV-I -6,0 C -4,6 C 0,0 km/h (0 Bft)
29.10.2012 04:55 -4,5 C 10,5 C -3,1 C -4,3 C -4,3 C 0,2 C 90 % 94 % 0 % 1019,2 hPa 0,0 l/m 0,0 km/h (0 Bft) O-NO 67 0 min 0,0 UV-I -5,9 C -4,3 C 0,0 km/h (0 Bft)
29.10.2012 05:00 -4,5 C 10,5 C -2,9 C -4,2 C -4,2 C 0,3 C 91 % 94 % 0 % 1019,2 hPa 0,0 l/m 0,0 km/h (0 Bft) O-NO 67 0 min 0,0 UV-I -5,7 C -4,2 C 0,0 km/h (0 Bft)
29.10.2012 05:05 -4,5 C 10,5 C -2,9 C -4,3 C -4,3 C 0,2 C 91 % 94 % 0 % 1019,2 hPa 0,0 l/m 0,0 km/h (0 Bft) O-NO 67 0 min 0,0 UV-I -5,7 C -4,3 C 0,0 km/h (0 Bft)
29.10.2012 05:10 -4,5 C 10,5 C -2,9 C -4,3 C -4,3 C 0,2 C 91 % 94 % 0 % 1019,2 hPa 0,0 l/m 0,0 km/h (0 Bft) O-NO 67 0 min 0,0 UV-I -5,7 C -4,3 C 0,0 km/h (0 Bft)
29.10.2012 05:15 -4,5 C 10,5 C -2,9 C -4,2 C -4,2 C 0,3 C 91 % 94 % 0 % 1019,2 hPa 0,0 l/m 0,0 km/h (0 Bft) O-NO 67 0 min 0,0 UV-I -5,7 C -4,2 C 0,0 km/h (0 Bft)
29.10.2012 05:20 -4,4 C 10,5 C -2,9 C -4,1 C -4,1 C 0,3 C 91 % 94 % 0 % 1019,2 hPa 0,0 l/m 0,0 km/h (0 Bft) O-NO 67 0 min 0,0 UV-I -5,6 C -4,1 C 0,0 km/h (0 Bft)
29.10.2012 05:25 -4,4 C 10,5 C -2,8 C -4,0 C -4,0 C 0,4 C 91 % 94 % 0 % 1019,2 hPa 0,0 l/m 0,0 km/h (0 Bft) O-NO 67 0 min 0,0 UV-I -5,6 C -4,0 C 0,0 km/h (0 Bft)
29.10.2012 05:30 -4,4 C 10,5 C -2,7 C -3,9 C -3,9 C 0,5 C 91 % 94 % 0 % 1019,2 hPa 0,0 l/m 0,0 km/h (0 Bft) O-NO 67 0 min 0,0 UV-I -5,6 C -3,9 C 0,0 km/h (0 Bft)
29.10.2012 05:35 -4,4 C 10,5 C -2,7 C -3,9 C -3,9 C 0,5 C 91 % 94 % 0 % 1018,8 hPa 0,0 l/m 0,0 km/h (0 Bft) O-NO 67 0 min 0,0 UV-I -5,6 C -3,9 C 0,0 km/h (0 Bft)
29.10.2012 05:40 -4,3 C 10,5 C -2,7 C -3,9 C -3,9 C 0,4 C 91 % 94 % 0 % 1018,8 hPa 0,0 l/m 0,0 km/h (0 Bft) O-NO 67 0 min 0,0 UV-I -5,5 C -3,9 C 0,0 km/h (0 Bft)
29.10.2012 05:45 -4,3 C 10,5 C -2,7 C -4,0 C -4,0 C 0,3 C 91 % 94 % 0 % 1018,8 hPa 0,0 l/m 0,0 km/h (0 Bft) O-NO 67 0 min 0,0 UV-I -5,5 C -4,0 C 0,0 km/h (0 Bft)
29.10.2012 05:50 -4,3 C 10,5 C -2,8 C -4,2 C -4,2 C 0,1 C 91 % 94 % 0 % 1018,8 hPa 0,0 l/m 0,0 km/h (0 Bft) O-NO 67 0 min 0,0 UV-I -5,5 C -4,2 C 0,0 km/h (0 Bft)
29.10.2012 05:55 -4,3 C 10,5 C -2,8 C -4,2 C -4,2 C 0,1 C 91 % 94 % 0 % 1018,9 hPa 0,0 l/m 0,0 km/h (0 Bft) O-NO 67 0 min 0,0 UV-I -5,5 C -4,2 C 0,0 km/h (0 Bft)
29.10.2012 06:00 -4,3 C 10,3 C -2,7 C -4,2 C -4,2 C 0,1 C 91 % 94 % 0 % 1018,9 hPa 0,0 l/m 0,0 km/h (0 Bft) O-NO 67 0 min 0,0 UV-I -5,5 C -4,2 C 0,0 km/h (0 Bft)
29.10.2012 06:05 -4,3 C 10,3 C -2,7 C -4,3 C -4,3 C 0,0 C 91 % 94 % 0 % 1018,9 hPa 0,0 l/m 0,0 km/h (0 Bft) O-NO 67 0 min 0,0 UV-I -5,5 C -4,3 C 0,0 km/h (0 Bft)
29.10.2012 06:10 -4,3 C 10,5 C -2,8 C -4,1 C -4,1 C 0,2 C 91 % 94 % 0 % 1018,9 hPa 0,0 l/m 0,0 km/h (0 Bft) O-NO 67 0 min 0,0 UV-I -5,5 C -4,1 C 0,0 km/h (0 Bft)
29.10.2012 06:15 -4,3 C 10,3 C -2,8 C -4,2 C -4,2 C 0,1 C 91 % 94 % 0 % 1018,5 hPa 0,0 l/m 0,0 km/h (0 Bft) O-NO 67 0 min 0,0 UV-I -5,5 C -4,2 C 0,0 km/h (0 Bft)
29.10.2012 06:20 -4,3 C 10,3 C -2,7 C -4,2 C -4,2 C 0,1 C 91 % 94 % 0 % 1018,5 hPa 0,0 l/m 0,0 km/h (0 Bft) O-NO 67 0 min 0,0 UV-I -5,5 C -4,2 C 0,0 km/h (0 Bft)
29.10.2012 06:25 -4,3 C 10,3 C -2,9 C -4,3 C -4,3 C 0,0 C 91 % 94 % 0 % 1018,5 hPa 0,0 l/m 0,0 km/h (0 Bft) O-NO 67 0 min 0,0 UV-I -5,5 C -4,3 C 0,0 km/h (0 Bft)
29.10.2012 06:30 -4,4 C 10,3 C -3,0 C -4,4 C -4,4 C 0,0 C 91 % 94 % 0 % 1018,5 hPa 0,0 l/m 0,0 km/h (0 Bft) O-NO 67 0 min 0,0 UV-I -5,6 C -4,4 C 0,0 km/h (0 Bft)
29.10.2012 06:35 -4,3 C 10,3 C -2,9 C -4,3 C -4,4 C 0,0 C 91 % 94 % 0 % 1018,7 hPa 0,0 l/m 0,0 km/h (0 Bft) O-NO 67 0 min 0,0 UV-I -5,5 C -4,4 C 0,0 km/h (0 Bft)
29.10.2012 06:46 -4,4 C 10,3 C -3,0 C -4,4 C -4,5 C 0,0 C 91 % 94 % 0 % 1018,7 hPa 0,0 l/m 0,3 km/h (0 Bft) N 0 0 min 0,0 UV-I -5,6 C -4,5 C 2,7 km/h (1 Bft)
29.10.2012 06:55 -4,4 C 10,3 C -3,1 C -4,4 C -4,5 C 0,0 C 91 % 94 % 0 % 1018,8 hPa 0,0 l/m 0,0 km/h (0 Bft) O-NO 67 0 min 0,0 UV-I -5,6 C -4,5 C 0,0 km/h (0 Bft)
29.10.2012 07:00 -4,3 C 10,3 C -2,9 C -4,4 C -4,5 C 0,0 C 91 % 94 % 0 % 1018,8 hPa 0,0 l/m 0,0 km/h (0 Bft) O-NO 67 0 min 0,0 UV-I -5,5 C -4,5 C 0,0 km/h (0 Bft)
29.10.2012 07:05 -4,5 C 10,3 C -2,9 C -4,5 C -4,5 C 0,0 C 91 % 94 % 0 % 1018,8 hPa 0,0 l/m 0,0 km/h (0 Bft) O-NO 67 0 min 0,0 UV-I -5,7 C -4,5 C 0,0 km/h (0 Bft)
29.10.2012 07:10 -4,5 C 10,3 C -2,9 C -4,4 C -4,4 C 0,1 C 91 % 94 % 3 % 1018,8 hPa 0,0 l/m 0,0 km/h (0 Bft) O-NO 67 0 min 0,0 UV-I -5,7 C -4,4 C 0,0 km/h (0 Bft)
29.10.2012 07:15 -4,3 C 10,3 C -3,1 C -4,4 C -4,5 C 0,0 C 91 % 94 % 0 % 1019,2 hPa 0,0 l/m 0,0 km/h (0 Bft) O-NO 67 0 min 0,0 UV-I -5,5 C -4,5 C 0,0 km/h (0 Bft)
29.10.2012 07:20 -4,5 C 10,3 C -3,0 C -4,5 C -4,6 C 0,0 C 91 % 94 % 0 % 1019,2 hPa 0,0 l/m 0,0 km/h (0 Bft) O-NO 67 0 min 0,0 UV-I -5,7 C -4,6 C 0,0 km/h (0 Bft)
29.10.2012 07:25 -4,5 C 10,3 C -3,1 C -4,5 C -4,6 C 0,0 C 91 % 94 % 0 % 1019,2 hPa 0,0 l/m 0,0 km/h (0 Bft) O-NO 67 0 min 0,0 UV-I -5,7 C -4,6 C 0,0 km/h (0 Bft)
29.10.2012 07:30 -4,5 C 10,3 C -3,2 C -4,6 C -4,8 C 0,0 C 91 % 94 % 0 % 1019,2 hPa 0,0 l/m 0,0 km/h (0 Bft) O-NO 67 0 min 0,0 UV-I -5,7 C -4,8 C 0,0 km/h (0 Bft)
29.10.2012 07:35 -4,6 C 10,3 C -3,3 C -4,7 C -5,0 C 0,0 C 91 % 94 % 0 % 1019,0 hPa 0,0 l/m 0,0 km/h (0 Bft) O-NO 67 0 min 0,0 UV-I -5,8 C -5,0 C 0,0 km/h (0 Bft)
29.10.2012 07:40 -4,5 C 10,3 C -3,4 C -4,7 C -5,1 C 0,0 C 91 % 94 % 0 % 1019,0 hPa 0,0 l/m 0,0 km/h (0 Bft) O-NO 67 0 min 0,0 UV-I -5,7 C -5,1 C 0,0 km/h (0 Bft)
29.10.2012 07:45 -4,7 C 10,3 C -3,3 C -4,9 C -5,2 C 0,0 C 90 % 94 % 0 % 1019,0 hPa 0,0 l/m 0,0 km/h (0 Bft) O-NO 67 0 min 0,0 UV-I -6,1 C -5,2 C 0,0 km/h (0 Bft)
29.10.2012 07:50 -4,7 C 10,3 C -3,3 C -4,9 C -5,2 C 0,0 C 90 % 94 % 0 % 1019,0 hPa 0,0 l/m 0,0 km/h (0 Bft) O-NO 67 0 min 0,0 UV-I -6,1 C -5,2 C 0,0 km/h (0 Bft)
29.10.2012 07:55 -4,8 C 10,2 C -3,5 C -4,9 C -5,1 C 0,0 C 90 % 94 % 0 % 1019,0 hPa 0,0 l/m 0,0 km/h (0 Bft) O-NO 67 0 min 0,0 UV-I -6,2 C -5,1 C 0,0 km/h (0 Bft)
29.10.2012 08:00 -4,8 C 10,2 C -3,5 C -4,9 C -5,0 C 0,0 C 91 % 94 % 0 % 1019,0 hPa 0,0 l/m 0,0 km/h (0 Bft) O-NO 67 0 min 0,0 UV-I -6,0 C -5,0 C 0,0 km/h (0 Bft)
29.10.2012 08:05 -4,7 C 10,2 C -3,5 C -4,8 C -5,0 C 0,0 C 91 % 94 % 0 % 1019,0 hPa 0,0 l/m 0,0 km/h (0 Bft) O-NO 67 0 min 0,0 UV-I -5,9 C -5,0 C 0,0 km/h (0 Bft)
29.10.2012 08:10 -4,7 C 10,2 C -3,5 C -4,7 C -4,8 C 0,0 C 91 % 94 % 0 % 1019,0 hPa 0,0 l/m 0,0 km/h (0 Bft) O-NO 67 0 min 0,0 UV-I -5,9 C -4,8 C 0,0 km/h (0 Bft)
29.10.2012 08:15 -4,7 C 10,2 C -3,3 C -4,7 C -4,7 C 0,0 C 91 % 94 % 0 % 1018,9 hPa 0,0 l/m 0,0 km/h (0 Bft) O-NO 67 0 min 0,0 UV-I -5,9 C -4,7 C 0,0 km/h (0 Bft)
29.10.2012 08:20 -4,7 C 10,2 C -3,2 C -4,7 C -4,7 C 0,0 C 91 % 94 % 0 % 1018,9 hPa 0,0 l/m 0,0 km/h (0 Bft) O-NO 67 0 min 0,0 UV-I -5,9 C -4,7 C 0,0 km/h (0 Bft)
29.10.2012 08:25 -4,7 C 10,2 C -3,1 C -4,5 C -4,5 C 0,2 C 91 % 94 % 5 % 1018,9 hPa 0,0 l/m 0,0 km/h (0 Bft) O-NO 67 0 min 0,0 UV-I -5,9 C -4,5 C 0,0 km/h (0 Bft)
29.10.2012 08:30 -4,7 C 10,2 C -2,9 C -4,4 C -4,4 C 0,3 C 91 % 94 % 8 % 1018,9 hPa 0,0 l/m 0,0 km/h (0 Bft) O-NO 67 0 min 0,0 UV-I -5,9 C -4,4 C 0,0 km/h (0 Bft)
29.10.2012 08:35 -4,5 C 10,2 C -2,9 C -3,9 C -3,9 C 0,6 C 91 % 94 % 16 % 1019,2 hPa 0,0 l/m 0,2 km/h (0 Bft) O-NO 67 0 min 0,0 UV-I -5,7 C -3,9 C 0,0 km/h (0 Bft)
29.10.2012 08:40 -4,5 C 10,2 C -2,5 C -3,9 C -3,9 C 0,6 C 91 % 94 % 16 % 1019,2 hPa 0,0 l/m 0,3 km/h (0 Bft) O-NO 67 0 min 0,0 UV-I -5,7 C -3,9 C 0,0 km/h (0 Bft)
29.10.2012 08:45 -4,5 C 10,2 C -2,3 C -3,8 C -3,8 C 0,7 C 91 % 94 % 18 % 1019,2 hPa 0,0 l/m 0,5 km/h (0 Bft) O-NO 67 0 min 0,0 UV-I -5,7 C -3,8 C 1,9 km/h (1 Bft)
29.10.2012 08:50 -4,4 C 10,2 C -2,1 C -3,8 C -3,8 C 0,6 C 91 % 94 % 16 % 1019,2 hPa 0,0 l/m 0,5 km/h (0 Bft) O-NO 67 0 min 0,0 UV-I -5,6 C -3,8 C 0,0 km/h (0 Bft)
29.10.2012 08:55 -4,3 C 10,2 C -2,1 C -3,7 C -3,7 C 0,6 C 91 % 94 % 16 % 1018,6 hPa 0,0 l/m 0,3 km/h (0 Bft) O-NO 67 0 min 0,0 UV-I -5,5 C -3,7 C 0,0 km/h (0 Bft)
29.10.2012 09:00 -4,1 C 10,2 C -2,1 C -3,6 C -3,6 C 0,5 C 91 % 94 % 13 % 1018,6 hPa 0,0 l/m 0,2 km/h (0 Bft) O-NO 67 0 min 0,0 UV-I -5,3 C -3,6 C 0,0 km/h (0 Bft)
29.10.2012 09:05 -4,1 C 10,2 C -2,1 C -3,4 C -3,4 C 0,7 C 91 % 94 % 18 % 1018,6 hPa 0,0 l/m 0,0 km/h (0 Bft) O-NO 67 0 min 0,0 UV-I -5,3 C -3,4 C 0,0 km/h (0 Bft)
29.10.2012 09:10 -4,1 C 10,2 C -2,0 C -3,2 C -3,2 C 0,9 C 91 % 94 % 24 % 1018,6 hPa 0,0 l/m 0,0 km/h (0 Bft) O-NO 67 0 min 0,0 UV-I -5,3 C -3,2 C 0,0 km/h (0 Bft)
29.10.2012 09:15 -3,9 C 10,2 C -1,9 C -3,0 C -3,0 C 0,9 C 91 % 95 % 24 % 1018,8 hPa 0,0 l/m 0,0 km/h (0 Bft) O-NO 67 0 min 0,0 UV-I -5,1 C -3,0 C 0,0 km/h (0 Bft)
29.10.2012 09:20 -3,8 C 10,2 C -1,7 C -2,8 C -2,8 C 1,0 C 92 % 95 % 26 % 1018,8 hPa 0,0 l/m 0,0 km/h (0 Bft) O-NO 67 0 min 0,0 UV-I -4,9 C -2,8 C 0,0 km/h (0 Bft)
29.10.2012 09:25 -3,6 C 10,2 C -1,7 C -2,5 C -2,5 C 1,1 C 92 % 95 % 29 % 1018,8 hPa 0,0 l/m 0,0 km/h (0 Bft) O-NO 67 0 min 0,0 UV-I -4,7 C -2,5 C 0,0 km/h (0 Bft)
29.10.2012 09:30 -3,5 C 10,2 C -1,7 C -2,1 C -2,1 C 1,4 C 92 % 95 % 37 % 1018,8 hPa 0,0 l/m 0,0 km/h (0 Bft) O-NO 67 0 min 0,0 UV-I -4,6 C -2,1 C 0,0 km/h (0 Bft)
29.10.2012 09:35 -3,3 C 10,2 C -1,6 C -2,0 C -2,0 C 1,3 C 92 % 95 % 34 % 1018,8 hPa 0,0 l/m 0,0 km/h (0 Bft) O-NO 67 0 min 0,0 UV-I -4,4 C -2,0 C 0,0 km/h (0 Bft)
29.10.2012 09:40 -3,1 C 10,3 C -1,5 C -2,0 C -2,0 C 1,1 C 92 % 95 % 29 % 1018,8 hPa 0,0 l/m 0,0 km/h (0 Bft) O-NO 67 0 min 0,0 UV-I -4,2 C -2,0 C 0,0 km/h (0 Bft)
29.10.2012 09:45 -3,0 C 10,3 C -1,3 C -1,9 C -1,9 C 1,1 C 92 % 95 % 29 % 1018,8 hPa 0,0 l/m 0,6 km/h (0 Bft) O-NO 67 0 min 0,0 UV-I -4,1 C -1,9 C 2,4 km/h (1 Bft)
29.10.2012 09:50 -2,9 C 10,3 C -1,3 C -1,7 C -1,7 C 1,2 C 92 % 95 % 32 % 1018,8 hPa 0,0 l/m 1,1 km/h (1 Bft) O-NO 67 0 min 0,0 UV-I -4,0 C -1,7 C 2,9 km/h (1 Bft)
29.10.2012 09:55 -2,7 C 10,3 C -1,1 C -1,7 C -1,7 C 1,0 C 92 % 95 % 26 % 1018,5 hPa 0,0 l/m 1,3 km/h (1 Bft) O-NO 67 0 min 0,0 UV-I -3,8 C -1,7 C 0,0 km/h (0 Bft)
29.10.2012 10:00 -2,5 C 10,3 C -1,1 C -1,6 C -1,6 C 0,9 C 92 % 95 % 24 % 1018,5 hPa 0,0 l/m 1,6 km/h (1 Bft) O-NO 67 0 min 0,0 UV-I -3,6 C -1,6 C 2,9 km/h (1 Bft)
29.10.2012 10:05 -2,3 C 10,3 C -0,9 C -1,4 C -1,4 C 0,9 C 92 % 95 % 24 % 1018,5 hPa 0,0 l/m 1,6 km/h (1 Bft) O-NO 67 0 min 0,0 UV-I -3,4 C -1,4 C 1,9 km/h (1 Bft)
29.10.2012 10:10 -2,3 C 10,3 C -0,7 C -1,2 C -1,2 C 1,1 C 92 % 95 % 29 % 1018,5 hPa 0,0 l/m 1,6 km/h (1 Bft) O-NO 67 0 min 0,0 UV-I -3,4 C -1,2 C 2,3 km/h (1 Bft)
29.10.2012 10:15 -2,2 C 10,3 C -0,8 C -1,0 C -1,0 C 1,2 C 92 % 95 % 32 % 1018,9 hPa 0,0 l/m 1,8 km/h (1 Bft) O-NO 67 0 min 0,1 UV-I -3,3 C -1,0 C 2,6 km/h (1 Bft)
29.10.2012 10:20 -2,1 C 10,3 C -0,5 C -1,0 C -1,0 C 1,1 C 92 % 95 % 29 % 1018,9 hPa 0,0 l/m 1,9 km/h (1 Bft) O-NO 67 0 min 0,1 UV-I -3,2 C -1,0 C 1,6 km/h (1 Bft)
29.10.2012 10:25 -2,0 C 10,3 C -0,5 C -0,7 C -0,7 C 1,3 C 92 % 95 % 34 % 1018,9 hPa 0,0 l/m 1,8 km/h (1 Bft) O-NO 67 0 min 0,1 UV-I -3,1 C -0,7 C 3,2 km/h (1 Bft)
29.10.2012 10:30 -1,9 C 10,3 C -0,5 C -0,6 C -0,6 C 1,3 C 92 % 95 % 34 % 1018,9 hPa 0,0 l/m 1,9 km/h (1 Bft) O-NO 67 0 min 0,1 UV-I -3,0 C -0,6 C 2,1 km/h (1 Bft)
29.10.2012 10:35 -1,7 C 10,3 C -0,4 C -0,4 C -0,4 C 1,3 C 92 % 95 % 34 % 1018,7 hPa 0,0 l/m 2,1 km/h (1 Bft) O-NO 67 0 min 0,1 UV-I -2,8 C -0,4 C 3,1 km/h (1 Bft)
29.10.2012 10:40 -1,7 C 10,3 C -0,1 C -0,2 C -0,2 C 1,5 C 92 % 95 % 39 % 1018,7 hPa 0,0 l/m 1,9 km/h (1 Bft) O-NO 67 0 min 0,1 UV-I -2,8 C -0,2 C 2,7 km/h (1 Bft)
29.10.2012 10:45 -1,5 C 10,3 C -0,1 C 0,0 C 0,0 C 1,5 C 92 % 95 % 39 % 1018,7 hPa 0,0 l/m 1,8 km/h (1 Bft) O-NO 67 0 min 0,1 UV-I -2,6 C 0,0 C 2,4 km/h (1 Bft)
29.10.2012 10:50 -1,3 C 10,3 C -0,1 C 0,1 C 0,1 C 1,4 C 92 % 95 % 37 % 1018,7 hPa 0,0 l/m 1,4 km/h (1 Bft) O-NO 67 0 min 0,1 UV-I -2,4 C 0,1 C 4,0 km/h (1 Bft)
29.10.2012 10:55 -1,2 C 10,3 C 0,0 C 0,4 C 0,4 C 1,6 C 92 % 95 % 42 % 1018,7 hPa 0,0 l/m 1,4 km/h (1 Bft) O-NO 67 0 min 0,1 UV-I -2,3 C 0,4 C 3,5 km/h (1 Bft)
29.10.2012 11:00 -1,1 C 10,3 C 0,2 C 0,6 C 0,6 C 1,7 C 92 % 95 % 45 % 1018,7 hPa 0,0 l/m 1,8 km/h (1 Bft) O-NO 67 0 min 0,2 UV-I -2,2 C 0,6 C 3,5 km/h (1 Bft)
29.10.2012 11:05 -0,9 C 10,2 C 0,3 C 0,9 C 0,9 C 1,8 C 92 % 95 % 47 % 1018,7 hPa 0,0 l/m 2,3 km/h (1 Bft) O-NO 67 0 min 0,1 UV-I -2,0 C 0,9 C 2,7 km/h (1 Bft)
29.10.2012 11:10 -0,9 C 10,2 C 0,3 C 1,1 C 1,1 C 2,0 C 92 % 95 % 53 % 1018,7 hPa 0,0 l/m 1,9 km/h (1 Bft) O-NO 67 0 min 0,2 UV-I -2,0 C 1,1 C 0,0 km/h (0 Bft)
29.10.2012 11:15 -0,4 C 10,2 C 0,4 C 1,2 C 1,2 C 1,6 C 92 % 95 % 42 % 1018,0 hPa 0,0 l/m 1,4 km/h (1 Bft) O-NO 67 0 min 0,2 UV-I -1,5 C 1,2 C 1,9 km/h (1 Bft)
29.10.2012 11:20 -0,4 C 10,2 C 0,4 C 1,8 C 1,8 C 2,2 C 92 % 95 % 58 % 1018,0 hPa 0,0 l/m 1,1 km/h (1 Bft) W 270 0 min 0,3 UV-I -1,5 C 1,8 C 0,0 km/h (0 Bft)
29.10.2012 11:25 -0,2 C 10,2 C 0,5 C 3,9 C 3,9 C 4,1 C 92 % 95 % 100 % 1018,0 hPa 0,0 l/m 0,8 km/h (0 Bft) SW 225 5 min 0,4 UV-I -1,3 C 3,9 C 1,8 km/h (1 Bft)
29.10.2012 11:30 -0,1 C 10,2 C 0,5 C 5,4 C 5,4 C 5,5 C 93 % 95 % 100 % 1018,0 hPa 0,0 l/m 0,5 km/h (0 Bft) W-SW 247 5 min 0,5 UV-I -1,1 C 5,4 C 1,8 km/h (1 Bft)
29.10.2012 11:35 0,0 C 10,2 C 0,5 C 6,7 C 6,7 C 6,7 C 93 % 95 % 100 % 1018,0 hPa 0,0 l/m 0,8 km/h (0 Bft) W-SW 247 5 min 0,5 UV-I -1,0 C 6,7 C 2,9 km/h (1 Bft)
29.10.2012 11:40 0,0 C 10,2 C 0,7 C 7,3 C 7,3 C 7,3 C 93 % 95 % 100 % 1018,0 hPa 0,0 l/m 1,4 km/h (1 Bft) W 270 5 min 0,4 UV-I -1,0 C 7,3 C 2,9 km/h (1 Bft)
29.10.2012 11:45 0,2 C 10,2 C 0,8 C 7,6 C 7,6 C 7,4 C 93 % 95 % 100 % 1018,0 hPa 0,0 l/m 1,9 km/h (1 Bft) S-SO 157 5 min 0,4 UV-I -0,8 C 7,6 C 0,0 km/h (0 Bft)
29.10.2012 11:50 0,2 C 10,1 C 0,8 C 7,4 C 7,4 C 7,2 C 92 % 95 % 100 % 1018,0 hPa 0,0 l/m 2,1 km/h (1 Bft) W 270 5 min 0,4 UV-I -0,9 C 7,4 C 4,3 km/h (1 Bft)
29.10.2012 11:55 0,4 C 10,1 C 0,8 C 7,1 C 7,1 C 6,7 C 92 % 95 % 100 % 1018,1 hPa 0,0 l/m 1,8 km/h (1 Bft) SO 135 5 min 0,4 UV-I -0,7 C 7,1 C 5,3 km/h (1 Bft)
29.10.2012 12:00 0,4 C 10,1 C 1,0 C 7,3 C 7,3 C 6,9 C 92 % 95 % 100 % 1018,1 hPa 0,0 l/m 1,9 km/h (1 Bft) W-SW 247 5 min 0,4 UV-I -0,7 C 7,3 C 1,8 km/h (1 Bft)
29.10.2012 12:05 0,7 C 10,1 C 1,1 C 7,3 C 7,3 C 6,6 C 92 % 95 % 100 % 1018,1 hPa 0,0 l/m 1,8 km/h (1 Bft) W 270 5 min 0,4 UV-I -0,4 C 7,3 C 1,9 km/h (1 Bft)
29.10.2012 12:10 0,6 C 10,1 C 1,1 C 7,0 C 7,0 C 6,4 C 92 % 95 % 100 % 1018,1 hPa 0,0 l/m 1,3 km/h (1 Bft) SW 225 5 min 0,4 UV-I -0,5 C 7,0 C 0,0 km/h (0 Bft)
29.10.2012 12:15 0,9 C 10,1 C 1,2 C 6,8 C 6,8 C 5,9 C 91 % 95 % 100 % 1017,3 hPa 0,0 l/m 2,3 km/h (1 Bft) W-SW 247 5 min 0,4 UV-I -0,4 C 6,8 C 4,7 km/h (1 Bft)
29.10.2012 12:20 0,9 C 10,1 C 1,2 C 6,3 C 6,3 C 5,4 C 90 % 95 % 100 % 1017,3 hPa 0,0 l/m 3,4 km/h (1 Bft) SW 225 5 min 0,4 UV-I -0,6 C 6,3 C 6,3 km/h (2 Bft)
29.10.2012 12:25 1,1 C 10,1 C 1,5 C 6,1 C 6,1 C 5,0 C 90 % 95 % 100 % 1017,3 hPa 0,0 l/m 3,4 km/h (1 Bft) S 180 5 min 0,4 UV-I -0,4 C 6,1 C 2,1 km/h (1 Bft)
29.10.2012 12:30 1,3 C 10,1 C 1,4 C 6,2 C 6,2 C 4,9 C 89 % 95 % 100 % 1017,3 hPa 0,0 l/m 3,4 km/h (1 Bft) SW 225 5 min 0,4 UV-I -0,3 C 6,2 C 9,3 km/h (2 Bft)
29.10.2012 12:35 1,5 C 10,1 C 1,5 C 5,7 C 5,7 C 4,2 C 88 % 95 % 100 % 1017,3 hPa 0,0 l/m 3,5 km/h (1 Bft) W-SW 247 5 min 0,4 UV-I -0,3 C 5,7 C 4,3 km/h (1 Bft)
29.10.2012 12:46 1,6 C 10,1 C 1,8 C 5,2 C 5,2 C 3,6 C 88 % 95 % 95 % 1017,3 hPa 0,0 l/m 2,4 km/h (1 Bft) N 0 11 min 0,4 UV-I -0,2 C 5,2 C 4,2 km/h (1 Bft)
29.10.2012 12:55 1,9 C 10,1 C 1,9 C 6,1 C 6,1 C 4,2 C 86 % 95 % 100 % 1017,4 hPa 0,0 l/m 2,4 km/h (1 Bft) S 180 9 min 0,4 UV-I -0,2 C 6,1 C 4,7 km/h (1 Bft)
29.10.2012 13:00 2,1 C 10,1 C 2,0 C 5,9 C 5,9 C 3,8 C 85 % 94 % 100 % 1017,4 hPa 0,0 l/m 2,7 km/h (1 Bft) SW 225 5 min 0,4 UV-I -0,2 C 5,9 C 3,4 km/h (1 Bft)
29.10.2012 13:05 2,3 C 10,1 C 2,1 C 5,4 C 5,4 C 3,1 C 84 % 95 % 82 % 1017,4 hPa 0,0 l/m 2,6 km/h (1 Bft) S-SW 202 0 min 0,4 UV-I -0,1 C 5,4 C 3,1 km/h (1 Bft)
29.10.2012 13:10 2,4 C 10,1 C 2,1 C 5,8 C 5,8 C 3,4 C 84 % 94 % 89 % 1017,4 hPa 0,0 l/m 2,3 km/h (1 Bft) W-SW 247 5 min 0,3 UV-I -0,0 C 5,8 C 0,0 km/h (0 Bft)
29.10.2012 13:15 2,7 C 10,1 C 2,2 C 6,9 C 6,9 C 4,2 C 83 % 94 % 100 % 1016,8 hPa 0,0 l/m 1,8 km/h (1 Bft) S-SO 157 5 min 0,3 UV-I 0,1 C 6,9 C 1,9 km/h (1 Bft)
29.10.2012 13:20 2,7 C 10,1 C 2,3 C 6,9 C 6,9 C 4,2 C 83 % 94 % 100 % 1016,8 hPa 0,0 l/m 1,6 km/h (1 Bft) W-NW 292 5 min 0,3 UV-I 0,1 C 6,9 C 4,5 km/h (1 Bft)
29.10.2012 13:25 2,8 C 10,2 C 2,4 C 7,7 C 7,7 C 4,9 C 82 % 94 % 100 % 1016,8 hPa 0,0 l/m 2,1 km/h (1 Bft) NW 315 5 min 0,3 UV-I 0,0 C 7,7 C 0,0 km/h (0 Bft)
29.10.2012 13:30 2,9 C 10,2 C 2,4 C 7,6 C 7,6 C 4,7 C 82 % 94 % 100 % 1016,8 hPa 0,0 l/m 1,8 km/h (1 Bft) SW 225 5 min 0,3 UV-I 0,1 C 7,6 C 2,4 km/h (1 Bft)
29.10.2012 13:35 3,2 C 10,2 C 2,4 C 6,7 C 6,7 C 3,5 C 81 % 94 % 92 % 1016,8 hPa 0,0 l/m 1,9 km/h (1 Bft) N-NO 22 5 min 0,3 UV-I 0,3 C 6,7 C 0,0 km/h (0 Bft)
29.10.2012 13:40 3,2 C 10,2 C 2,5 C 6,1 C 6,1 C 2,9 C 79 % 95 % 76 % 1016,8 hPa 0,0 l/m 3,4 km/h (1 Bft) SW 225 0 min 0,3 UV-I -0,1 C 6,1 C 6,6 km/h (2 Bft)
29.10.2012 13:45 3,3 C 10,2 C 2,7 C 5,6 C 5,6 C 2,3 C 79 % 95 % 61 % 1016,8 hPa 0,0 l/m 3,4 km/h (1 Bft) S 180 0 min 0,2 UV-I 0,0 C 5,6 C 1,6 km/h (1 Bft)
29.10.2012 13:50 3,3 C 10,2 C 2,6 C 5,4 C 5,4 C 2,1 C 80 % 95 % 55 % 1016,8 hPa 0,0 l/m 2,6 km/h (1 Bft) W 270 0 min 0,2 UV-I 0,2 C 5,4 C 3,1 km/h (1 Bft)
29.10.2012 13:55 3,5 C 10,2 C 2,7 C 5,5 C 5,5 C 2,0 C 80 % 95 % 53 % 1016,2 hPa 0,0 l/m 1,3 km/h (1 Bft) W-SW 247 0 min 0,2 UV-I 0,4 C 5,5 C 4,8 km/h (1 Bft)
29.10.2012 14:00 3,6 C 10,2 C 2,7 C 6,5 C 6,5 C 2,9 C 78 % 95 % 76 % 1016,2 hPa 0,0 l/m 2,1 km/h (1 Bft) O-SO 112 0 min 0,2 UV-I 0,1 C 6,5 C 0,0 km/h (0 Bft)
29.10.2012 14:05 3,9 C 10,3 C 2,9 C 8,1 C 8,1 C 4,2 C 78 % 95 % 100 % 1016,2 hPa 0,0 l/m 2,7 km/h (1 Bft) SW 225 5 min 0,1 UV-I 0,4 C 8,1 C 5,6 km/h (1 Bft)
29.10.2012 14:10 4,0 C 10,2 C 2,8 C 8,3 C 8,3 C 4,3 C 78 % 95 % 100 % 1016,2 hPa 0,0 l/m 2,3 km/h (1 Bft) W-SW 247 5 min 0,1 UV-I 0,5 C 8,3 C 3,7 km/h (1 Bft)
29.10.2012 14:15 4,3 C 10,2 C 2,8 C 7,8 C 7,8 C 3,5 C 76 % 95 % 92 % 1016,6 hPa 0,0 l/m 3,5 km/h (1 Bft) SW 225 5 min 0,1 UV-I 0,5 C 7,8 C 3,9 km/h (1 Bft)
29.10.2012 14:20 4,3 C 10,3 C 2,9 C 8,2 C 8,2 C 3,9 C 77 % 95 % 100 % 1016,6 hPa 0,0 l/m 2,9 km/h (1 Bft) W-SW 247 5 min 0,1 UV-I 0,6 C 8,2 C 2,4 km/h (1 Bft)
29.10.2012 14:25 4,7 C 10,3 C 3,0 C 8,8 C 8,8 C 4,1 C 77 % 95 % 100 % 1016,6 hPa 0,0 l/m 2,7 km/h (1 Bft) W-SW 247 5 min 0,1 UV-I 1,0 C 8,8 C 3,5 km/h (1 Bft)
29.10.2012 14:30 5,2 C 10,3 C 3,1 C 9,2 C 9,2 C 4,0 C 77 % 95 % 100 % 1016,6 hPa 0,0 l/m 2,4 km/h (1 Bft) S-SW 202 5 min 0,1 UV-I 1,5 C 9,2 C 2,9 km/h (1 Bft)
29.10.2012 14:35 5,6 C 10,3 C 3,0 C 9,7 C 9,7 C 4,1 C 75 % 94 % 100 % 1016,1 hPa 0,0 l/m 1,3 km/h (1 Bft) S-SW 202 5 min 0,0 UV-I 1,5 C 9,7 C 1,8 km/h (1 Bft)
29.10.2012 14:40 5,6 C 10,3 C 3,1 C 10,0 C 10,0 C 4,4 C 73 % 94 % 100 % 1016,1 hPa 0,0 l/m 1,6 km/h (1 Bft) S 180 5 min 0,0 UV-I 1,2 C 10,0 C 2,4 km/h (1 Bft)
29.10.2012 14:45 5,5 C 10,3 C 3,1 C 10,0 C 10,0 C 4,5 C 72 % 94 % 100 % 1016,1 hPa 0,0 l/m 2,3 km/h (1 Bft) W-SW 247 5 min 0,0 UV-I 0,9 C 10,0 C 0,0 km/h (0 Bft)
29.10.2012 14:50 5,5 C 10,3 C 2,9 C 10,0 C 10,0 C 4,5 C 72 % 94 % 100 % 1016,1 hPa 0,0 l/m 2,6 km/h (1 Bft) W 270 5 min 0,0 UV-I 0,9 C 10,0 C 8,0 km/h (2 Bft)
29.10.2012 14:55 5,5 C 10,3 C 3,0 C 9,5 C 9,5 C 4,0 C 70 % 94 % 100 % 1015,9 hPa 0,0 l/m 2,9 km/h (1 Bft) W-SW 247 5 min 0,0 UV-I 0,5 C 9,5 C 0,0 km/h (0 Bft)
29.10.2012 15:00 5,4 C 10,3 C 2,8 C 9,5 C 9,5 C 4,1 C 71 % 94 % 100 % 1015,9 hPa 0,0 l/m 2,7 km/h (1 Bft) S 180 5 min 0,0 UV-I 0,6 C 9,5 C 7,2 km/h (2 Bft)
29.10.2012 15:05 5,6 C 10,3 C 2,8 C 9,4 C 9,4 C 3,8 C 72 % 94 % 100 % 1015,9 hPa 0,0 l/m 1,6 km/h (1 Bft) S 180 5 min 0,0 UV-I 1,0 C 9,4 C 0,0 km/h (0 Bft)
29.10.2012 15:10 5,7 C 10,3 C 2,9 C 9,5 C 9,5 C 3,8 C 71 % 94 % 100 % 1015,9 hPa 0,0 l/m 1,6 km/h (1 Bft) W-NW 292 5 min 0,0 UV-I 0,9 C 9,5 C 1,8 km/h (1 Bft)
29.10.2012 15:15 5,6 C 10,3 C 2,8 C 9,3 C 9,3 C 3,7 C 70 % 94 % 97 % 1015,9 hPa 0,0 l/m 1,9 km/h (1 Bft) S 180 5 min 0,0 UV-I 0,6 C 9,3 C 3,2 km/h (1 Bft)
29.10.2012 15:20 5,2 C 10,3 C 2,7 C 9,1 C 9,1 C 3,9 C 69 % 94 % 100 % 1015,9 hPa 0,0 l/m 2,6 km/h (1 Bft) SW 225 5 min 0,0 UV-I -0,0 C 9,1 C 3,5 km/h (1 Bft)
29.10.2012 15:25 4,7 C 10,3 C 2,7 C 8,5 C 8,5 C 3,8 C 68 % 94 % 100 % 1015,9 hPa 0,0 l/m 3,5 km/h (1 Bft) W-SW 247 5 min 0,0 UV-I -0,7 C 8,5 C 2,9 km/h (1 Bft)
29.10.2012 15:30 4,7 C 10,3 C 2,6 C 8,3 C 8,3 C 3,6 C 69 % 94 % 95 % 1015,9 hPa 0,0 l/m 3,2 km/h (1 Bft) SW 225 5 min 0,0 UV-I -0,5 C 8,3 C 10,0 km/h (2 Bft)
29.10.2012 15:35 4,9 C 10,3 C 2,5 C 8,1 C 8,1 C 3,2 C 70 % 94 % 84 % 1015,0 hPa 0,0 l/m 2,6 km/h (1 Bft) S 180 5 min 0,0 UV-I -0,1 C 8,1 C 3,2 km/h (1 Bft)
29.10.2012 15:40 5,0 C 10,3 C 2,4 C 8,0 C 8,0 C 3,0 C 69 % 94 % 79 % 1015,0 hPa 0,0 l/m 2,9 km/h (1 Bft) SO 135 5 min 0,0 UV-I -0,2 C 8,0 C 2,6 km/h (1 Bft)
29.10.2012 15:45 4,9 C 10,3 C 2,3 C 7,7 C 7,7 C 2,8 C 69 % 94 % 74 % 1015,0 hPa 0,0 l/m 2,1 km/h (1 Bft) S 180 5 min 0,0 UV-I -0,3 C 7,7 C 2,6 km/h (1 Bft)
29.10.2012 15:50 4,7 C 10,3 C 2,4 C 7,4 C 7,4 C 2,7 C 69 % 94 % 71 % 1015,0 hPa 0,0 l/m 1,3 km/h (1 Bft) S-SO 157 5 min 0,0 UV-I -0,5 C 7,4 C 2,3 km/h (1 Bft)
29.10.2012 15:55 4,4 C 10,3 C 2,2 C 6,9 C 6,9 C 2,5 C 70 % 94 % 66 % 1015,6 hPa 0,0 l/m 0,5 km/h (0 Bft) S 180 5 min 0,0 UV-I -0,6 C 6,9 C 0,0 km/h (0 Bft)
29.10.2012 16:00 4,4 C 10,3 C 2,0 C 6,2 C 6,2 C 1,8 C 71 % 94 % 47 % 1015,6 hPa 0,0 l/m 0,5 km/h (0 Bft) S-SW 202 5 min 0,0 UV-I -0,4 C 6,2 C 0,0 km/h (0 Bft)
29.10.2012 16:05 4,3 C 10,3 C 2,0 C 5,4 C 5,4 C 1,1 C 71 % 94 % 29 % 1015,6 hPa 0,0 l/m 0,6 km/h (0 Bft) W-SW 247 5 min 0,0 UV-I -0,5 C 5,4 C 3,5 km/h (1 Bft)
29.10.2012 16:10 4,3 C 10,3 C 1,9 C 5,3 C 5,3 C 1,0 C 71 % 94 % 26 % 1015,6 hPa 0,0 l/m 1,3 km/h (1 Bft) S-SO 157 5 min 0,0 UV-I -0,5 C 5,3 C 2,9 km/h (1 Bft)
29.10.2012 16:15 4,1 C 10,3 C 1,9 C 5,5 C 5,5 C 1,4 C 71 % 94 % 37 % 1015,6 hPa 0,0 l/m 1,3 km/h (1 Bft) S 180 5 min 0,0 UV-I -0,7 C 5,5 C 1,6 km/h (1 Bft)
29.10.2012 16:20 4,1 C 10,3 C 1,8 C 5,3 C 5,3 C 1,2 C 71 % 94 % 32 % 1015,6 hPa 0,0 l/m 1,1 km/h (1 Bft) SW 225 5 min 0,0 UV-I -0,7 C 5,3 C 0,0 km/h (0 Bft)
29.10.2012 16:25 3,6 C 10,3 C 1,7 C 4,6 C 4,6 C 1,0 C 72 % 94 % 26 % 1015,6 hPa 0,0 l/m 0,5 km/h (0 Bft) SO 135 5 min 0,0 UV-I -1,0 C 4,6 C 0,0 km/h (0 Bft)
29.10.2012 16:30 3,5 C 10,3 C 1,7 C 3,8 C 3,8 C 0,3 C 72 % 94 % 8 % 1015,6 hPa 0,0 l/m 0,5 km/h (0 Bft) S-SW 202 0 min 0,0 UV-I -1,1 C 3,8 C 2,4 km/h (1 Bft)
29.10.2012 16:35 3,1 C 10,3 C 1,5 C 3,0 C 2,9 C 0,0 C 72 % 94 % 0 % 1015,2 hPa 0,0 l/m 0,6 km/h (0 Bft) SO 135 0 min 0,0 UV-I -1,4 C 2,9 C 0,0 km/h (0 Bft)
29.10.2012 16:40 2,8 C 10,3 C 1,0 C 2,6 C 2,2 C 0,0 C 73 % 94 % 0 % 1015,2 hPa 0,0 l/m 0,5 km/h (0 Bft) O 90 0 min 0,0 UV-I -1,5 C 2,2 C 0,0 km/h (0 Bft)
29.10.2012 16:45 2,4 C 10,3 C 0,8 C 2,0 C 1,2 C 0,0 C 74 % 93 % 0 % 1015,2 hPa 0,0 l/m 0,2 km/h (0 Bft) S 180 0 min 0,0 UV-I -1,7 C 1,2 C 0,0 km/h (0 Bft)
29.10.2012 16:50 2,3 C 10,3 C 0,8 C 1,8 C 0,7 C 0,0 C 74 % 94 % 0 % 1015,2 hPa 0,0 l/m 0,3 km/h (0 Bft) S 180 0 min 0,0 UV-I -1,8 C 0,7 C 2,3 km/h (1 Bft)
29.10.2012 16:55 1,9 C 10,3 C 0,7 C 1,2 C -0,1 C 0,0 C 76 % 94 % 0 % 1015,2 hPa 0,0 l/m 0,3 km/h (0 Bft) SW 225 0 min 0,0 UV-I -1,9 C -0,1 C 0,0 km/h (0 Bft)
29.10.2012 17:00 1,7 C 10,3 C 0,4 C 1,0 C -0,4 C 0,0 C 76 % 94 % 0 % 1015,2 hPa 0,0 l/m 0,3 km/h (0 Bft) SO 135 0 min 0,0 UV-I -2,1 C -0,4 C 0,0 km/h (0 Bft)
29.10.2012 17:05 1,5 C 10,3 C 0,4 C 0,8 C -0,7 C 0,0 C 77 % 94 % 0 % 1015,2 hPa 0,0 l/m 0,5 km/h (0 Bft) SO 135 0 min 0,0 UV-I -2,1 C -0,7 C 0,0 km/h (0 Bft)
29.10.2012 17:10 1,3 C 10,3 C 0,1 C 0,6 C -0,8 C 0,0 C 77 % 94 % 0 % 1015,2 hPa 0,0 l/m 0,3 km/h (0 Bft) O-SO 112 0 min 0,0 UV-I -2,3 C -0,8 C 0,0 km/h (0 Bft)
29.10.2012 17:15 1,1 C 10,3 C 0,0 C 0,3 C -1,2 C 0,0 C 78 % 94 % 0 % 1014,9 hPa 0,0 l/m 0,2 km/h (0 Bft) S-SW 202 0 min 0,0 UV-I -2,3 C -1,2 C 0,0 km/h (0 Bft)
29.10.2012 17:20 0,8 C 10,3 C -0,1 C 0,1 C -1,4 C 0,0 C 78 % 94 % 0 % 1014,9 hPa 0,0 l/m 0,2 km/h (0 Bft) W-SW 247 0 min 0,0 UV-I -2,6 C -1,4 C 0,0 km/h (0 Bft)
29.10.2012 17:25 0,6 C 10,5 C -0,1 C -0,2 C -1,7 C 0,0 C 79 % 94 % 0 % 1014,9 hPa 0,0 l/m 0,0 km/h (0 Bft) NO 45 0 min 0,0 UV-I -2,6 C -1,7 C 0,0 km/h (0 Bft)
29.10.2012 17:30 0,4 C 10,5 C -0,5 C -0,3 C -1,7 C 0,0 C 79 % 94 % 0 % 1014,9 hPa 0,0 l/m 0,0 km/h (0 Bft) O-NO 67 0 min 0,0 UV-I -2,8 C -1,7 C 0,0 km/h (0 Bft)
29.10.2012 17:35 0,3 C 10,5 C -0,5 C -0,4 C -1,9 C 0,0 C 80 % 94 % 0 % 1014,8 hPa 0,0 l/m 0,0 km/h (0 Bft) SO 135 0 min 0,0 UV-I -2,7 C -1,9 C 0,0 km/h (0 Bft)
29.10.2012 17:40 0,0 C 10,5 C -0,5 C -0,7 C -2,0 C 0,0 C 81 % 94 % 0 % 1014,8 hPa 0,0 l/m 0,0 km/h (0 Bft) O 90 0 min 0,0 UV-I -2,9 C -2,0 C 0,0 km/h (0 Bft)
29.10.2012 17:45 -0,1 C 10,5 C -0,5 C -0,8 C -2,1 C 0,0 C 81 % 94 % 0 % 1014,8 hPa 0,0 l/m 0,0 km/h (0 Bft) O-SO 112 0 min 0,0 UV-I -3,0 C -2,1 C 0,0 km/h (0 Bft)
29.10.2012 17:50 -0,3 C 10,5 C -0,3 C -0,9 C -2,1 C 0,0 C 82 % 95 % 0 % 1014,8 hPa 0,0 l/m 0,2 km/h (0 Bft) O-SO 112 0 min 0,0 UV-I -3,0 C -2,1 C 1,9 km/h (1 Bft)
29.10.2012 17:55 -0,3 C 10,5 C -0,5 C -0,9 C -2,1 C 0,0 C 82 % 95 % 0 % 1014,5 hPa 0,0 l/m 0,2 km/h (0 Bft) O-NO 67 0 min 0,0 UV-I -3,0 C -2,1 C 0,0 km/h (0 Bft)
29.10.2012 18:00 -0,5 C 10,5 C -0,5 C -1,1 C -2,2 C 0,0 C 82 % 95 % 0 % 1014,5 hPa 0,0 l/m 0,2 km/h (0 Bft) W-SW 247 0 min 0,0 UV-I -3,2 C -2,2 C 0,0 km/h (0 Bft)
29.10.2012 18:05 -0,5 C 10,5 C -0,5 C -1,2 C -2,5 C 0,0 C 82 % 95 % 0 % 1014,5 hPa 0,0 l/m 0,0 km/h (0 Bft) S 180 0 min 0,0 UV-I -3,2 C -2,5 C 0,0 km/h (0 Bft)
29.10.2012 18:10 -0,7 C 10,5 C -0,5 C -1,3 C -2,6 C 0,0 C 82 % 95 % 0 % 1014,5 hPa 0,0 l/m 0,0 km/h (0 Bft) SW 225 0 min 0,0 UV-I -3,4 C -2,6 C 0,0 km/h (0 Bft)
29.10.2012 18:15 -1,0 C 10,5 C -0,7 C -1,6 C -2,8 C 0,0 C 82 % 95 % 0 % 1014,7 hPa 0,0 l/m 0,0 km/h (0 Bft) S-SO 157 0 min 0,0 UV-I -3,7 C -2,8 C 0,0 km/h (0 Bft)
29.10.2012 18:20 -1,1 C 10,5 C -0,9 C -1,7 C -2,8 C 0,0 C 82 % 95 % 0 % 1014,7 hPa 0,0 l/m 0,0 km/h (0 Bft) S 180 0 min 0,0 UV-I -3,8 C -2,8 C 0,0 km/h (0 Bft)
29.10.2012 18:25 -1,3 C 10,5 C -1,1 C -1,8 C -2,8 C 0,0 C 83 % 95 % 0 % 1014,7 hPa 0,0 l/m 0,0 km/h (0 Bft) S-SO 157 0 min 0,0 UV-I -3,8 C -2,8 C 0,0 km/h (0 Bft)
29.10.2012 18:30 -1,3 C 10,5 C -1,1 C -1,8 C -2,9 C 0,0 C 83 % 95 % 0 % 1014,7 hPa 0,0 l/m 0,0 km/h (0 Bft) W 270 0 min 0,0 UV-I -3,8 C -2,9 C 0,0 km/h (0 Bft)
29.10.2012 18:35 -1,6 C 10,5 C -1,1 C -2,0 C -2,9 C 0,0 C 83 % 95 % 0 % 1014,7 hPa 0,0 l/m 0,0 km/h (0 Bft) S-SW 202 0 min 0,0 UV-I -4,1 C -2,9 C 0,0 km/h (0 Bft)
29.10.2012 18:46 -1,7 C 10,5 C -1,2 C -2,1 C -3,0 C 0,0 C 84 % 95 % 0 % 1014,7 hPa 0,0 l/m 0,0 km/h (0 Bft) N 0 0 min 0,0 UV-I -4,0 C -3,0 C 0,0 km/h (0 Bft)
29.10.2012 18:55 -1,9 C 10,5 C -1,2 C -2,3 C -3,0 C 0,0 C 85 % 95 % 0 % 1014,6 hPa 0,0 l/m 0,0 km/h (0 Bft) O-SO 112 0 min 0,0 UV-I -4,1 C -3,0 C 0,0 km/h (0 Bft)
29.10.2012 19:00 -1,9 C 10,5 C -1,3 C -2,3 C -3,0 C 0,0 C 85 % 95 % 0 % 1014,6 hPa 0,0 l/m 0,0 km/h (0 Bft) O-NO 67 0 min 0,0 UV-I -4,1 C -3,0 C 0,0 km/h (0 Bft)
29.10.2012 19:05 -2,0 C 10,6 C -1,3 C -2,3 C -3,0 C 0,0 C 85 % 95 % 0 % 1014,6 hPa 0,0 l/m 0,0 km/h (0 Bft) SO 135 0 min 0,0 UV-I -4,2 C -3,0 C 0,0 km/h (0 Bft)
29.10.2012 19:10 -2,0 C 10,6 C -1,3 C -2,3 C -3,0 C 0,0 C 85 % 95 % 0 % 1014,6 hPa 0,0 l/m 0,2 km/h (0 Bft) NW 315 0 min 0,0 UV-I -4,2 C -3,0 C 3,7 km/h (1 Bft)
29.10.2012 19:15 -2,1 C 10,6 C -1,3 C -2,4 C -3,0 C 0,0 C 85 % 95 % 0 % 1014,1 hPa 0,0 l/m 0,3 km/h (0 Bft) S-SW 202 0 min 0,0 UV-I -4,3 C -3,0 C 1,6 km/h (1 Bft)
29.10.2012 19:20 -1,1 C 10,6 C -0,9 C -1,7 C -2,8 C 0,0 C 82 % 95 % 0 % 1014,7 hPa 0,0 l/m 0,0 km/h (0 Bft) S 180 0 min 0,0 UV-I -3,8 C -2,8 C 0,0 km/h (0 Bft)
29.10.2012 19:25 -1,3 C 10,6 C -1,1 C -1,8 C -2,8 C 0,0 C 83 % 95 % 0 % 1014,7 hPa 0,0 l/m 0,0 km/h (0 Bft) S-SO 157 0 min 0,0 UV-I -3,8 C -2,8 C 0,0 km/h (0 Bft)
29.10.2012 19:30 -1,3 C 10,6 C -1,1 C -1,8 C -2,9 C 0,0 C 83 % 95 % 0 % 1014,7 hPa 0,0 l/m 0,0 km/h (0 Bft) W 270 0 min 0,0 UV-I -3,8 C -2,9 C 0,0 km/h (0 Bft)
29.10.2012 19:35 -1,6 C 10,6 C -1,1 C -2,0 C -2,9 C 0,0 C 83 % 95 % 0 % 1014,7 hPa 0,0 l/m 0,0 km/h (0 Bft) S-SW 202 0 min 0,0 UV-I -4,1 C -2,9 C 0,0 km/h (0 Bft)
29.10.2012 19:40 -1,7 C 10,6 C -0,9 C -2,1 C -2,9 C 0,0 C 84 % 95 % 0 % 1014,7 hPa 0,0 l/m 0,0 km/h (0 Bft) O-SO 112 0 min 0,0 UV-I -4,0 C -2,9 C 0,0 km/h (0 Bft)
29.10.2012 19:45 -1,7 C 10,6 C -1,2 C -2,1 C -3,0 C 0,0 C 84 % 95 % 0 % 1014,7 hPa 0,0 l/m 0,0 km/h (0 Bft) O-NO 67 0 min 0,0 UV-I -4,0 C -3,0 C 0,0 km/h (0 Bft)
29.10.2012 19:50 -1,7 C 10,6 C -1,1 C -2,1 C -3,0 C 0,0 C 84 % 95 % 0 % 1014,7 hPa 0,0 l/m 0,0 km/h (0 Bft) NW 315 0 min 0,0 UV-I -4,0 C -3,0 C 0,0 km/h (0 Bft)
29.10.2012 19:55 -1,9 C 0,0 C -1,2 C -2,3 C -3,0 C 0,0 C 85 % 95 % 0 % 1014,6 hPa 0,0 l/m 0,0 km/h (0 Bft) O-SO 112 0 min 0,0 UV-I -4,1 C -3,0 C 0,0 km/h (0 Bft)
29.10.2012 20:00 -1,9 C 0,0 C -1,3 C -2,3 C -3,0 C 0,0 C 85 % 95 % 0 % 1014,6 hPa 0,0 l/m 0,0 km/h (0 Bft) O-NO 67 0 min 0,0 UV-I -4,1 C -3,0 C 0,0 km/h (0 Bft)
29.10.2012 20:05 -2,0 C 10,6 C -1,3 C -2,3 C -3,0 C 0,0 C 85 % 95 % 0 % 1014,6 hPa 0,0 l/m 0,0 km/h (0 Bft) SO 135 0 min 0,0 UV-I -4,2 C -3,0 C 0,0 km/h (0 Bft)
29.10.2012 20:10 -2,0 C 10,6 C -1,3 C -2,3 C -3,0 C 0,0 C 85 % 95 % 0 % 1014,6 hPa 0,0 l/m 0,2 km/h (0 Bft) NW 315 0 min 0,0 UV-I -4,2 C -3,0 C 3,7 km/h (1 Bft)
29.10.2012 19:26 -2,1 C 10,6 C -1,2 C -2,4 C -3,0 C 0,0 C 85 % 95 % 0 % 1014,1 hPa 0,0 l/m 0,5 km/h (0 Bft) S-SO 157 0 min 0,0 UV-I -4,3 C -3,0 C 2,7 km/h (1 Bft)
29.10.2012 19:30 -2,1 C 10,6 C -1,1 C -2,4 C -2,9 C 0,0 C 85 % 95 % 0 % 1014,1 hPa 0,0 l/m 0,6 km/h (0 Bft) SO 135 0 min 0,0 UV-I -4,3 C -2,9 C 3,1 km/h (1 Bft)
29.10.2012 19:35 -2,0 C 10,6 C -1,1 C -2,2 C -2,7 C 0,0 C 85 % 95 % 0 % 1014,0 hPa 0,0 l/m 1,1 km/h (1 Bft) S-SO 157 0 min 0,0 UV-I -4,2 C -2,7 C 4,2 km/h (1 Bft)
29.10.2012 19:40 -1,9 C 10,6 C -0,9 C -2,1 C -2,6 C 0,0 C 85 % 95 % 0 % 1014,0 hPa 0,0 l/m 1,0 km/h (0 Bft) S 180 0 min 0,0 UV-I -4,1 C -2,6 C 0,0 km/h (0 Bft)
29.10.2012 19:45 -1,7 C 10,6 C -1,1 C -2,0 C -2,5 C 0,0 C 85 % 95 % 0 % 1014,0 hPa 0,0 l/m 1,0 km/h (0 Bft) S 180 0 min 0,0 UV-I -3,9 C -2,5 C 0,0 km/h (0 Bft)
29.10.2012 19:50 -1,7 C 10,6 C -0,9 C -1,9 C -2,4 C 0,0 C 85 % 95 % 0 % 1014,0 hPa 0,0 l/m 1,3 km/h (1 Bft) S 180 0 min 0,0 UV-I -3,9 C -2,4 C 3,5 km/h (1 Bft)
29.10.2012 19:55 -1,6 C 10,0 C -0,9 C -1,8 C -2,3 C 0,0 C 85 % 95 % 0 % 1013,9 hPa 0,0 l/m 1,6 km/h (1 Bft) S 180 0 min 0,0 UV-I -3,8 C -2,3 C 2,1 km/h (1 Bft)
29.10.2012 20:00 -1,5 C 10,0 C -0,8 C -1,7 C -2,1 C 0,0 C 85 % 95 % 0 % 1013,9 hPa 0,0 l/m 1,4 km/h (1 Bft) SW 225 0 min 0,0 UV-I -3,7 C -2,1 C 2,1 km/h (1 Bft)
29.10.2012 20:05 -1,3 C 10,6 C -0,5 C -1,5 C -1,9 C 0,0 C 85 % 95 % 0 % 1013,9 hPa 0,0 l/m 1,4 km/h (1 Bft) W-SW 247 0 min 0,0 UV-I -3,5 C -1,9 C 0,0 km/h (0 Bft)
29.10.2012 20:10 -1,2 C 10,6 C -0,5 C -1,4 C -1,7 C 0,0 C 84 % 95 % 0 % 1013,9 hPa 0,0 l/m 1,9 km/h (1 Bft) S-SO 157 0 min 0,0 UV-I -3,5 C -1,7 C 2,7 km/h (1 Bft)
29.10.2012 20:15 -0,9 C 10,6 C -0,5 C -1,1 C -1,4 C 0,0 C 84 % 95 % 0 % 1013,6 hPa 0,0 l/m 1,9 km/h (1 Bft) S-SW 202 0 min 0,0 UV-I -3,3 C -1,4 C 3,4 km/h (1 Bft)
29.10.2012 20:20 -0,9 C 10,6 C -0,4 C -1,0 C -1,2 C 0,0 C 84 % 95 % 0 % 1013,6 hPa 0,0 l/m 1,9 km/h (1 Bft) W-SW 247 0 min 0,0 UV-I -3,3 C -1,2 C 3,4 km/h (1 Bft)
29.10.2012 20:25 -0,7 C 10,6 C -0,3 C -0,8 C -0,9 C 0,0 C 83 % 95 % 0 % 1013,6 hPa 0,0 l/m 2,1 km/h (1 Bft) SW 225 0 min 0,0 UV-I -3,2 C -0,9 C 5,1 km/h (1 Bft)
29.10.2012 20:30 -0,5 C 10,6 C -0,1 C -0,6 C -0,8 C 0,0 C 83 % 95 % 0 % 1013,6 hPa 0,0 l/m 2,6 km/h (1 Bft) N-NW 337 0 min 0,0 UV-I -3,0 C -0,8 C 11,6 km/h (2 Bft)
29.10.2012 20:35 -0,4 C 10,6 C -0,1 C -0,5 C -0,6 C 0,0 C 83 % 95 % 0 % 1014,1 hPa 0,0 l/m 2,7 km/h (1 Bft) S 180 0 min 0,0 UV-I -2,9 C -0,6 C 1,9 km/h (1 Bft)
29.10.2012 20:40 -0,3 C 10,6 C 0,0 C -0,4 C -0,5 C 0,0 C 83 % 95 % 0 % 1014,1 hPa 0,0 l/m 2,7 km/h (1 Bft) O-SO 112 0 min 0,0 UV-I -2,8 C -0,5 C 5,0 km/h (1 Bft)
29.10.2012 20:45 -0,1 C 10,6 C 0,1 C -0,2 C -0,4 C 0,0 C 82 % 95 % 0 % 1014,1 hPa 0,0 l/m 2,9 km/h (1 Bft) S 180 0 min 0,0 UV-I -2,8 C -0,4 C 4,5 km/h (1 Bft)
29.10.2012 20:50 0,1 C 10,6 C 0,2 C -0,2 C -0,7 C 0,0 C 82 % 95 % 0 % 1014,1 hPa 0,0 l/m 3,5 km/h (1 Bft) N-NW 337 0 min 0,0 UV-I -2,6 C -0,7 C 4,0 km/h (1 Bft)
29.10.2012 20:55 0,1 C 10,6 C 0,3 C 0,0 C -0,2 C 0,0 C 82 % 95 % 0 % 1013,6 hPa 0,0 l/m 3,1 km/h (1 Bft) NW 315 0 min 0,0 UV-I -2,6 C -0,2 C 1,8 km/h (1 Bft)
29.10.2012 21:00 0,3 C 10,6 C 0,3 C 0,3 C 0,3 C 0,0 C 81 % 95 % 0 % 1013,6 hPa 0,0 l/m 2,3 km/h (1 Bft) W-SW 247 0 min 0,0 UV-I -2,6 C 0,3 C 8,7 km/h (2 Bft)
29.10.2012 21:05 0,3 C 10,6 C 0,3 C 0,4 C 0,4 C 0,1 C 81 % 95 % 0 % 1013,6 hPa 0,0 l/m 2,3 km/h (1 Bft) S 180 0 min 0,0 UV-I -2,6 C 0,4 C 1,8 km/h (1 Bft)
29.10.2012 21:10 0,3 C 10,6 C 0,4 C 0,3 C 0,2 C 0,0 C 81 % 95 % 0 % 1013,6 hPa 0,0 l/m 2,9 km/h (1 Bft) O-NO 67 0 min 0,0 UV-I -2,6 C 0,2 C 7,9 km/h (2 Bft)
29.10.2012 21:15 0,4 C 10,6 C 0,5 C 0,3 C 0,1 C 0,0 C 81 % 95 % 0 % 1013,7 hPa 0,0 l/m 3,2 km/h (1 Bft) SO 135 0 min 0,0 UV-I -2,5 C 0,1 C 5,3 km/h (1 Bft)
29.10.2012 21:20 0,4 C 10,6 C 0,4 C 0,3 C 0,0 C 0,0 C 81 % 95 % 0 % 1013,7 hPa 0,0 l/m 3,4 km/h (1 Bft) W 270 0 min 0,0 UV-I -2,5 C 0,0 C 14,0 km/h (3 Bft)
29.10.2012 21:25 0,4 C 10,5 C 0,4 C 0,6 C 0,6 C 0,2 C 81 % 95 % 0 % 1013,7 hPa 0,0 l/m 2,4 km/h (1 Bft) W 270 0 min 0,0 UV-I -2,5 C 0,6 C 2,1 km/h (1 Bft)
29.10.2012 21:30 0,5 C 10,5 C 0,4 C 0,5 C 0,4 C 0,0 C 81 % 95 % 0 % 1013,7 hPa 0,0 l/m 2,9 km/h (1 Bft) SW 225 0 min 0,0 UV-I -2,4 C 0,4 C 3,2 km/h (1 Bft)
29.10.2012 21:35 0,5 C 10,5 C 0,5 C 0,4 C 0,1 C 0,0 C 81 % 95 % 0 % 1013,5 hPa 0,0 l/m 3,4 km/h (1 Bft) W-SW 247 0 min 0,0 UV-I -2,4 C 0,1 C 4,3 km/h (1 Bft)
29.10.2012 21:40 0,7 C 10,5 C 0,5 C 0,5 C 0,1 C 0,0 C 80 % 95 % 0 % 1013,5 hPa 0,0 l/m 3,4 km/h (1 Bft) S 180 0 min 0,0 UV-I -2,3 C 0,1 C 4,5 km/h (1 Bft)
29.10.2012 21:45 0,7 C 10,5 C 0,7 C 0,6 C 0,3 C 0,0 C 80 % 95 % 0 % 1013,5 hPa 0,0 l/m 3,1 km/h (1 Bft) W-SW 247 0 min 0,0 UV-I -2,3 C 0,3 C 2,7 km/h (1 Bft)
29.10.2012 21:50 0,7 C 10,5 C 0,7 C 0,6 C 0,4 C 0,0 C 80 % 95 % 0 % 1013,5 hPa 0,0 l/m 2,9 km/h (1 Bft) W-SW 247 0 min 0,0 UV-I -2,3 C 0,4 C 6,4 km/h (2 Bft)
29.10.2012 21:55 0,7 C 10,5 C 0,6 C 0,7 C 0,6 C 0,0 C 80 % 95 % 0 % 1013,1 hPa 0,0 l/m 2,9 km/h (1 Bft) S 180 0 min 0,0 UV-I -2,3 C 0,6 C 8,2 km/h (2 Bft)
29.10.2012 22:00 0,8 C 10,5 C 0,7 C 0,7 C 0,6 C 0,0 C 80 % 95 % 0 % 1013,1 hPa 0,0 l/m 2,9 km/h (1 Bft) SO 135 0 min 0,0 UV-I -2,2 C 0,6 C 4,5 km/h (1 Bft)
29.10.2012 22:05 0,8 C 10,5 C 0,7 C 0,7 C 0,4 C 0,0 C 80 % 95 % 0 % 1013,1 hPa 0,0 l/m 3,1 km/h (1 Bft) S-SW 202 0 min 0,0 UV-I -2,2 C 0,4 C 4,0 km/h (1 Bft)
29.10.2012 22:10 0,8 C 10,5 C 0,7 C 0,7 C 0,6 C 0,0 C 80 % 95 % 0 % 1013,1 hPa 0,0 l/m 2,9 km/h (1 Bft) S 180 0 min 0,0 UV-I -2,2 C 0,6 C 4,2 km/h (1 Bft)
29.10.2012 22:15 0,8 C 10,5 C 0,8 C 0,8 C 0,7 C 0,0 C 80 % 95 % 0 % 1013,1 hPa 0,0 l/m 2,9 km/h (1 Bft) S 180 0 min 0,0 UV-I -2,2 C 0,7 C 1,8 km/h (1 Bft)
29.10.2012 22:20 0,9 C 10,5 C 0,8 C 0,8 C 0,7 C 0,0 C 80 % 95 % 0 % 1013,1 hPa 0,0 l/m 2,9 km/h (1 Bft) S 180 0 min 0,0 UV-I -2,2 C 0,7 C 4,5 km/h (1 Bft)
29.10.2012 22:25 0,9 C 10,5 C 0,8 C 0,9 C 0,8 C 0,0 C 80 % 95 % 0 % 1013,1 hPa 0,0 l/m 2,7 km/h (1 Bft) N-NO 22 0 min 0,0 UV-I -2,2 C 0,8 C 0,0 km/h (0 Bft)
29.10.2012 22:30 0,9 C 10,5 C 0,9 C 0,9 C 0,9 C 0,0 C 80 % 95 % 0 % 1013,1 hPa 0,0 l/m 2,7 km/h (1 Bft) S 180 0 min 0,0 UV-I -2,2 C 0,9 C 2,1 km/h (1 Bft)
29.10.2012 22:35 0,9 C 10,5 C 0,9 C 1,1 C 1,1 C 0,2 C 80 % 95 % 0 % 1012,8 hPa 0,0 l/m 2,6 km/h (1 Bft) S-SO 157 0 min 0,0 UV-I -2,2 C 1,1 C 4,0 km/h (1 Bft)
29.10.2012 22:40 1,1 C 10,5 C 0,8 C 1,0 C 0,9 C 0,0 C 80 % 95 % 0 % 1012,8 hPa 0,0 l/m 2,7 km/h (1 Bft) W-SW 247 0 min 0,0 UV-I -2,0 C 0,9 C 2,4 km/h (1 Bft)
29.10.2012 22:45 1,1 C 10,5 C 0,8 C 1,0 C 0,7 C 0,0 C 80 % 95 % 0 % 1012,8 hPa 0,0 l/m 3,1 km/h (1 Bft) W-SW 247 0 min 0,0 UV-I -2,0 C 0,7 C 4,8 km/h (1 Bft)
29.10.2012 22:50 1,1 C 10,5 C 0,8 C 1,1 C 1,1 C 0,0 C 80 % 95 % 0 % 1012,8 hPa 0,0 l/m 2,6 km/h (1 Bft) NW 315 0 min 0,0 UV-I -2,0 C 1,1 C 5,5 km/h (1 Bft)
29.10.2012 22:55 1,0 C 10,5 C 0,9 C 0,9 C 0,6 C 0,0 C 80 % 95 % 0 % 1012,9 hPa 0,0 l/m 3,2 km/h (1 Bft) SW 225 0 min 0,0 UV-I -2,1 C 0,6 C 2,7 km/h (1 Bft)
29.10.2012 23:00 1,1 C 10,5 C 0,9 C 0,8 C 0,2 C 0,0 C 80 % 95 % 0 % 1012,9 hPa 0,0 l/m 3,9 km/h (1 Bft) S 180 0 min 0,0 UV-I -2,0 C 0,2 C 7,7 km/h (2 Bft)
29.10.2012 23:05 1,1 C 10,5 C 0,9 C 0,9 C 0,4 C 0,0 C 80 % 95 % 0 % 1012,9 hPa 0,0 l/m 3,9 km/h (1 Bft) S 180 0 min 0,0 UV-I -2,0 C 0,4 C 7,1 km/h (2 Bft)
29.10.2012 23:10 1,0 C 10,5 C 0,9 C 0,7 C 0,2 C 0,0 C 80 % 95 % 0 % 1012,9 hPa 0,0 l/m 4,2 km/h (1 Bft) SW 225 0 min 0,0 UV-I -2,1 C 0,2 C 6,1 km/h (2 Bft)
29.10.2012 23:15 1,0 C 10,5 C 0,9 C 0,9 C 0,6 C 0,0 C 80 % 95 % 0 % 1012,1 hPa 0,0 l/m 3,5 km/h (1 Bft) SW 225 0 min 0,0 UV-I -2,1 C 0,6 C 3,1 km/h (1 Bft)
29.10.2012 23:20 1,1 C 10,5 C 1,0 C 0,9 C 0,4 C 0,0 C 80 % 95 % 0 % 1012,1 hPa 0,0 l/m 3,5 km/h (1 Bft) SO 135 0 min 0,0 UV-I -2,0 C 0,4 C 10,5 km/h (2 Bft)
29.10.2012 23:25 1,1 C 10,5 C 0,9 C 0,9 C 0,6 C 0,0 C 80 % 95 % 0 % 1012,1 hPa 0,0 l/m 3,4 km/h (1 Bft) S-SO 157 0 min 0,0 UV-I -2,0 C 0,6 C 6,8 km/h (2 Bft)
29.10.2012 23:30 1,0 C 10,5 C 1,0 C 0,8 C 0,4 C 0,0 C 80 % 95 % 0 % 1012,1 hPa 0,0 l/m 3,5 km/h (1 Bft) W-SW 247 0 min 0,0 UV-I -2,1 C 0,4 C 8,4 km/h (2 Bft)
29.10.2012 23:35 0,9 C 10,5 C 0,9 C 0,7 C 0,2 C 0,0 C 81 % 95 % 0 % 1011,8 hPa 0,0 l/m 3,7 km/h (1 Bft) O-NO 67 0 min 0,0 UV-I -2,0 C 0,2 C 2,9 km/h (1 Bft)
29.10.2012 23:40 0,8 C 10,5 C 0,9 C 0,7 C 0,6 C 0,0 C 81 % 95 % 0 % 1011,8 hPa 0,0 l/m 3,1 km/h (1 Bft) W 270 0 min 0,0 UV-I -2,1 C 0,6 C 15,4 km/h (3 Bft)
29.10.2012 23:45 0,7 C 10,5 C 0,9 C 0,6 C 0,3 C 0,0 C 82 % 95 % 0 % 1011,8 hPa 0,0 l/m 3,1 km/h (1 Bft) S 180 0 min 0,0 UV-I -2,0 C 0,3 C 8,2 km/h (2 Bft)
29.10.2012 23:50 0,5 C 10,5 C 0,9 C 0,3 C 0,0 C 0,0 C 82 % 95 % 0 % 1011,8 hPa 0,0 l/m 3,5 km/h (1 Bft) W-SW 247 0 min 0,0 UV-I -2,2 C 0,0 C 3,4 km/h (1 Bft)
29.10.2012 23:55 0,5 C 10,5 C 0,8 C 0,4 C 0,2 C 0,0 C 83 % 95 % 0 % 1011,6 hPa 0,0 l/m 3,1 km/h (1 Bft) N 360 0 min 0,0 UV-I -2,0 C 0,2 C 5,5 km/h (1 Bft)
_ Min-Zeit 07:55 00:58 07:55 07:45 07:45 00:00 15:25 16:45 00:00 23:55 - 00:00 - - - 00:00 07:55 07:45 00:00
Minimum _ -4,8 C 0,0 C -3,5 C -4,9 C -5,2 C 0,0 C 68 % 93 % 0 % 1011,6 hPa - 0,0 km/h (0 Bft) - - - 0,0 UV-I -6,2 C -5,2 C 0,0 km/h (0 Bft)
_ Max-Zeit 15:10 00:00 14:30 14:40 14:40 11:45 11:30 00:00 11:25 01:35 00:00 23:10 - - 12:46 11:30 14:35 14:40 23:40
Maximum _ 5,7 C 11,1 C 3,1 C 10,0 C 10,0 C 7,4 C 93 % 95 % 100 % 1020,0 hPa 0,0 l/m 4,2 km/h
SW (1 Bft)
- - 11 min 0,5 UV-I 1,5 C 10,0 C 15,4 km/h
W (3 Bft)
Durchschnitt _ -1,5 C 9,7 C -0,9 C -0,8 C -1,1 C 0,9 C 86 % 95 % 18 % 1017,0 hPa #0,0 l/m 0,9 km/h (0 Bft) S - #4:35 h 0,3 UV-I -3,6 C -1,1 C 1,6 km/h (1 Bft)
2012 www.wetterstation-wechselburg.de